Time;durP1;ratioP1;P1;durP2;ratioP2;P2;SDS_P1;SDS_P2;PMS_P1;PMS_P2;Temp;Humidity;BMP_temperature;BMP_pressure;BME280_temperature;BME280_humidity;BME280_pressure;Samples;Min_cycle;Max_cycle;Signal;HPM_P1;HPM_P2
2022/10/06 00:01:08;;;;;;;11.77;7.73;;;15.40;99.90;;;;;;5031853;28;20471;-87
2022/10/06 00:03:36;;;;;;;16.83;8.90;;;15.30;99.90;;;;;;5036459;28;20449;-87
2022/10/06 00:06:04;;;;;;;9.30;7.50;;;15.20;99.90;;;;;;5052266;28;20496;-87
2022/10/06 00:08:33;;;;;;;9.30;6.43;;;15.20;99.90;;;;;;5053674;28;20477;-87
2022/10/06 00:11:00;;;;;;;8.80;6.63;;;15.10;99.90;;;;;;5036020;28;20448;-88
2022/10/06 00:13:27;;;;;;;9.20;6.47;;;15.10;99.90;;;;;;5032335;28;20442;-87
2022/10/06 00:15:54;;;;;;;9.87;6.57;;;15.10;99.90;;;;;;5031595;28;20529;-87
2022/10/06 00:18:21;;;;;;;7.80;6.17;;;15.10;99.90;;;;;;5031872;28;20472;-87
2022/10/06 00:20:54;;;;;;;10.10;6.37;;;15.00;99.90;;;;;;5031547;28;20457;-88
2022/10/06 00:23:21;;;;;;;14.80;6.90;;;14.90;99.90;;;;;;5031603;28;20886;-88
2022/10/06 00:25:49;;;;;;;12.03;6.67;;;15.00;99.90;;;;;;5030942;28;20477;-88
2022/10/06 00:28:16;;;;;;;8.50;6.17;;;14.90;99.90;;;;;;5033756;28;20457;-88
2022/10/06 00:30:43;;;;;;;14.10;8.17;;;15.00;99.90;;;;;;5035306;28;21257;-88
2022/10/06 00:33:12;;;;;;;8.77;7.97;;;14.90;99.90;;;;;;5042187;28;20469;-88
2022/10/06 00:35:39;;;;;;;10.47;6.80;;;14.90;99.90;;;;;;5056518;28;20430;-88
2022/10/06 00:38:06;;;;;;;9.90;7.63;;;14.90;99.90;;;;;;5046803;28;20484;-88
2022/10/06 00:40:33;;;;;;;10.60;7.80;;;14.90;99.90;;;;;;5037035;28;20821;-87
2022/10/06 00:43:03;;;;;;;13.93;8.17;;;14.90;99.90;;;;;;5036047;28;20456;-88
2022/10/06 00:45:36;;;;;;;9.83;6.90;;;14.80;99.90;;;;;;5035281;28;20449;-88
2022/10/06 00:48:08;;;;;;;8.87;7.70;;;14.80;99.90;;;;;;5035575;28;20472;-88
2022/10/06 00:50:35;;;;;;;14.50;8.80;;;14.80;99.90;;;;;;5039424;28;20480;-88
2022/10/06 00:53:04;;;;;;;11.47;8.13;;;14.70;99.90;;;;;;5046957;28;20819;-88
2022/10/06 00:55:31;;;;;;;9.67;7.90;;;14.70;99.90;;;;;;5034893;28;20448;-88
2022/10/06 00:57:59;;;;;;;11.13;8.00;;;14.70;99.90;;;;;;5044089;28;20450;-88
2022/10/06 01:00:27;;;;;;;10.10;8.00;;;14.70;99.90;;;;;;5060172;28;20438;-87
2022/10/06 01:02:58;;;;;;;12.07;8.57;;;14.80;99.90;;;;;;5045116;28;20441;-87
2022/10/06 01:05:29;;;;;;;11.43;9.50;;;14.80;99.90;;;;;;5035401;28;20795;-87
2022/10/06 01:07:56;;;;;;;14.37;8.50;;;14.70;99.90;;;;;;5036196;28;20490;-87
2022/10/06 01:10:23;;;;;;;12.73;9.50;;;14.80;99.90;;;;;;5055604;28;20450;-87
2022/10/06 01:12:50;;;;;;;15.10;8.23;;;14.70;99.90;;;;;;5054543;28;20434;-88
2022/10/06 01:15:18;;;;;;;13.17;9.50;;;14.70;99.90;;;;;;5035414;28;20448;-87
2022/10/06 01:17:51;;;;;;;13.60;9.10;;;14.60;99.90;;;;;;5035029;28;20465;-88
2022/10/06 01:20:20;;;;;;;13.80;9.80;;;14.50;99.90;;;;;;5034787;28;20460;-87
2022/10/06 01:22:50;;;;;;;13.23;9.50;;;14.50;99.90;;;;;;5035335;28;20446;-88
2022/10/06 01:25:18;;;;;;;12.53;9.03;;;14.40;99.90;;;;;;5044105;28;20465;-87
2022/10/06 01:27:52;;;;;;;14.20;9.90;;;14.40;99.90;;;;;;5057715;28;20508;-87
2022/10/06 01:30:23;;;;;;;15.17;9.50;;;14.40;99.90;;;;;;5050831;28;20447;-87
2022/10/06 01:32:50;;;;;;;19.07;9.03;;;14.40;99.90;;;;;;5046322;28;20449;-87
2022/10/06 01:35:17;;;;;;;15.47;10.10;;;14.40;99.90;;;;;;5052335;28;20454;-88
2022/10/06 01:37:44;;;;;;;9.93;8.93;;;14.30;99.90;;;;;;5059292;28;20461;-88
2022/10/06 01:40:12;;;;;;;13.40;9.17;;;14.40;99.90;;;;;;5059961;28;20441;-87
2022/10/06 01:42:39;;;;;;;12.53;9.90;;;14.30;99.90;;;;;;5059797;28;20449;-87
2022/10/06 01:45:07;;;;;;;15.70;9.70;;;14.40;99.90;;;;;;5058806;28;20437;-88
2022/10/06 01:47:34;;;;;;;13.20;10.53;;;14.30;99.90;;;;;;5049646;28;20477;-87
2022/10/06 01:50:01;;;;;;;15.70;10.90;;;14.30;99.90;;;;;;5035361;28;20445;-87
2022/10/06 01:52:28;;;;;;;12.03;9.53;;;14.30;99.90;;;;;;5034354;28;20452;-87
2022/10/06 01:54:54;;;;;;;17.70;10.63;;;14.10;99.90;;;;;;5034042;28;20454;-87
2022/10/06 01:57:22;;;;;;;10.53;9.20;;;14.10;99.90;;;;;;5035522;28;20453;-87
2022/10/06 01:59:49;;;;;;;14.93;10.90;;;14.10;99.90;;;;;;5044263;28;20961;-88
2022/10/06 02:02:16;;;;;;;17.33;10.90;;;14.10;99.90;;;;;;5035159;28;20492;-88
2022/10/06 02:04:43;;;;;;;14.87;11.00;;;14.20;99.90;;;;;;5033843;28;20456;-87
2022/10/06 02:07:09;;;;;;;14.07;10.27;;;14.10;99.90;;;;;;5033781;28;21014;-87
2022/10/06 02:09:36;;;;;;;15.27;10.50;;;14.10;99.90;;;;;;5033970;28;20458;-88
2022/10/06 02:12:03;;;;;;;15.80;10.57;;;14.00;99.90;;;;;;5034249;28;20452;-87
2022/10/06 02:14:33;;;;;;;15.73;10.70;;;13.90;99.90;;;;;;5034140;28;20453;-87
2022/10/06 02:17:00;;;;;;;17.90;11.60;;;13.80;99.90;;;;;;5033768;28;20450;-87
2022/10/06 02:19:27;;;;;;;20.10;10.40;;;13.80;99.90;;;;;;5033863;28;20997;-87
2022/10/06 02:21:54;;;;;;;18.27;12.03;;;13.80;99.90;;;;;;5051518;28;20452;-87
2022/10/06 02:24:20;;;;;;;13.53;11.47;;;13.80;99.90;;;;;;5052898;28;20474;-88
2022/10/06 02:26:47;;;;;;;17.57;10.90;;;13.70;99.90;;;;;;5040507;28;21041;-89
2022/10/06 02:29:14;;;;;;;15.50;10.90;;;13.70;99.90;;;;;;5036604;28;20842;-88
2022/10/06 02:31:42;;;;;;;13.70;10.50;;;13.70;99.90;;;;;;5034574;28;20453;-88
2022/10/06 02:34:08;;;;;;;15.87;12.07;;;13.70;99.90;;;;;;5035015;28;20795;-87
2022/10/06 02:36:35;;;;;;;16.47;10.97;;;13.70;99.90;;;;;;5034340;28;20505;-87
2022/10/06 02:39:02;;;;;;;18.80;11.23;;;13.70;99.90;;;;;;5034206;28;20473;-87
2022/10/06 02:41:29;;;;;;;11.43;10.33;;;13.60;99.90;;;;;;5033982;28;20449;-87
2022/10/06 02:43:56;;;;;;;15.50;12.13;;;13.60;99.90;;;;;;5033590;28;20461;-88
2022/10/06 02:46:23;;;;;;;14.77;10.93;;;13.60;99.90;;;;;;5033005;28;20456;-87
2022/10/06 02:48:52;;;;;;;14.03;12.53;;;13.50;99.90;;;;;;5033879;28;20515;-87
2022/10/06 02:51:20;;;;;;;18.83;12.90;;;13.40;99.90;;;;;;5032360;28;20450;-87
2022/10/06 02:53:49;;;;;;;15.10;12.20;;;13.40;99.90;;;;;;5033345;28;20876;-87
2022/10/06 02:56:18;;;;;;;22.53;14.13;;;13.40;99.90;;;;;;5033283;28;20441;-88
2022/10/06 02:58:46;;;;;;;18.23;13.87;;;13.30;99.90;;;;;;5032888;28;20473;-88
2022/10/06 03:01:15;;;;;;;19.33;13.10;;;13.30;99.90;;;;;;5018316;28;21009;-87
2022/10/06 03:03:42;;;;;;;16.37;13.00;;;13.30;99.90;;;;;;5016604;28;20454;-87
2022/10/06 03:06:21;;;;;;;13.50;11.80;;;13.40;99.90;;;;;;5038833;28;20450;-88
2022/10/06 03:08:48;;;;;;;13.60;12.20;;;13.40;99.90;;;;;;5038319;28;20443;-88
2022/10/06 03:11:15;;;;;;;15.83;12.83;;;13.40;99.90;;;;;;5020539;28;20509;-88
2022/10/06 03:13:42;;;;;;;14.40;11.40;;;13.40;99.90;;;;;;5015016;28;20451;-88
2022/10/06 03:16:14;;;;;;;17.47;13.70;;;13.40;99.90;;;;;;5037400;28;20461;-88
2022/10/06 03:18:43;;;;;;;16.43;12.27;;;13.40;99.90;;;;;;5035837;28;20465;-88
2022/10/06 03:21:12;;;;;;;21.13;12.73;;;13.40;99.90;;;;;;5038596;28;20434;-88
2022/10/06 03:23:39;;;;;;;20.03;12.90;;;13.40;99.90;;;;;;5029892;28;20442;-88
2022/10/06 03:26:06;;;;;;;17.03;12.17;;;13.40;99.90;;;;;;5013588;28;20453;-88
2022/10/06 03:28:33;;;;;;;15.77;12.37;;;13.40;99.90;;;;;;5012808;28;20517;-87
2022/10/06 03:31:03;;;;;;;15.60;12.47;;;13.40;99.90;;;;;;5013195;28;20450;-88
2022/10/06 03:33:30;;;;;;;14.03;11.30;;;13.40;99.90;;;;;;5012958;28;20438;-88
2022/10/06 03:36:02;;;;;;;19.30;12.67;;;13.40;99.90;;;;;;5012557;28;20513;-88
2022/10/06 03:38:31;;;;;;;16.53;12.13;;;13.40;99.90;;;;;;5012593;28;20471;-87
2022/10/06 03:41:06;;;;;;;17.50;13.03;;;13.40;99.90;;;;;;5013150;28;20473;-88
2022/10/06 03:43:34;;;;;;;13.83;11.20;;;13.50;99.90;;;;;;5013957;28;20454;-88
2022/10/06 03:46:01;;;;;;;20.20;12.47;;;13.50;99.90;;;;;;5013648;28;20578;-88
2022/10/06 03:48:28;;;;;;;20.53;13.73;;;13.60;99.90;;;;;;5012423;28;20496;-88
2022/10/06 03:50:57;;;;;;;14.73;12.50;;;13.70;99.90;;;;;;5012985;28;20457;-88
2022/10/06 03:53:26;;;;;;;16.83;12.33;;;13.70;99.90;;;;;;5012785;28;20446;-87
2022/10/06 03:56:01;;;;;;;19.33;12.10;;;13.70;99.90;;;;;;5013045;28;20454;-88
2022/10/06 03:58:28;;;;;;;18.63;13.20;;;13.80;99.90;;;;;;5012431;28;20465;-88
2022/10/06 04:01:02;;;;;;;16.20;13.20;;;13.70;99.90;;;;;;5012720;28;20446;-88
2022/10/06 04:03:29;;;;;;;18.47;13.17;;;13.80;99.90;;;;;;5013263;28;20446;-87
2022/10/06 04:05:57;;;;;;;14.93;12.87;;;13.80;99.90;;;;;;5012933;28;20447;-88
2022/10/06 04:08:25;;;;;;;19.43;12.97;;;13.80;99.90;;;;;;5012170;28;20490;-88
2022/10/06 04:10:51;;;;;;;16.87;12.77;;;13.80;99.90;;;;;;5013171;28;20453;-88
2022/10/06 04:13:21;;;;;;;17.03;13.60;;;13.90;99.90;;;;;;5020790;28;20446;-88
2022/10/06 04:15:48;;;;;;;18.03;12.80;;;13.90;99.90;;;;;;5012207;28;20458;-88
2022/10/06 04:18:17;;;;;;;12.90;11.40;;;14.00;99.90;;;;;;5012738;28;20826;-87
2022/10/06 04:20:44;;;;;;;16.20;12.67;;;14.00;99.90;;;;;;5012737;28;20529;-88
2022/10/06 04:23:11;;;;;;;15.43;11.63;;;14.00;99.90;;;;;;5012417;28;20438;-88
2022/10/06 04:25:38;;;;;;;12.83;11.50;;;14.00;99.90;;;;;;5012652;28;20450;-88
2022/10/06 04:28:04;;;;;;;17.90;10.77;;;14.00;99.90;;;;;;5020928;28;20549;-89
2022/10/06 04:30:32;;;;;;;21.00;11.73;;;14.10;99.90;;;;;;5024386;28;20494;-88
2022/10/06 04:33:00;;;;;;;17.40;12.00;;;14.10;99.90;;;;;;5016600;28;20442;-88
2022/10/06 04:35:27;;;;;;;19.67;12.33;;;14.10;99.90;;;;;;5016447;28;20462;-87
2022/10/06 04:37:56;;;;;;;20.70;12.33;;;14.10;99.90;;;;;;5033480;28;20501;-86
2022/10/06 04:40:22;;;;;;;16.80;10.50;;;14.10;99.90;;;;;;5024450;28;20454;-90
2022/10/06 04:42:49;;;;;;;18.20;12.00;;;14.10;99.90;;;;;;5018441;28;20442;-87
2022/10/06 04:45:16;;;;;;;15.93;11.20;;;14.00;99.90;;;;;;5033191;28;20473;-87
2022/10/06 04:47:44;;;;;;;14.57;11.67;;;14.00;99.90;;;;;;5033366;28;20475;-87
2022/10/06 04:50:10;;;;;;;19.57;12.30;;;14.00;99.90;;;;;;5014120;28;20492;-87
2022/10/06 04:52:37;;;;;;;13.23;11.30;;;14.00;99.90;;;;;;5012806;28;20448;-87
2022/10/06 04:55:05;;;;;;;23.83;11.90;;;14.10;99.90;;;;;;5013992;28;20454;-87
2022/10/06 04:57:32;;;;;;;16.10;11.40;;;14.10;99.90;;;;;;5013257;28;20479;-87
2022/10/06 05:02:44;;;;;;;18.73;10.87;;;14.20;99.90;;;;;;5037302;28;20430;-86
2022/10/06 05:05:10;;;;;;;17.20;12.93;;;14.20;99.90;;;;;;5035928;28;20426;-87
2022/10/06 05:07:37;;;;;;;16.07;11.80;;;14.30;99.90;;;;;;5029278;28;20491;-87
2022/10/06 05:10:04;;;;;;;16.37;11.87;;;14.30;99.90;;;;;;5019935;28;20442;-87
2022/10/06 05:12:31;;;;;;;16.77;12.03;;;14.30;99.90;;;;;;5014206;28;20457;-87
2022/10/06 05:14:58;;;;;;;16.03;10.70;;;14.30;99.90;;;;;;5015837;28;20450;-87
2022/10/06 05:17:25;;;;;;;16.77;11.50;;;14.40;99.90;;;;;;5016148;28;20538;-87
2022/10/06 05:19:53;;;;;;;14.20;10.50;;;14.40;99.90;;;;;;5025328;28;20462;-87
2022/10/06 05:22:20;;;;;;;12.20;9.03;;;14.40;99.90;;;;;;5022160;28;20501;-87
2022/10/06 05:24:48;;;;;;;18.90;11.20;;;14.50;99.90;;;;;;5023774;28;20443;-87
2022/10/06 05:27:15;;;;;;;19.83;9.53;;;14.50;99.90;;;;;;5037367;28;20458;-86
2022/10/06 05:29:42;;;;;;;17.57;10.13;;;14.50;99.90;;;;;;5048037;28;20509;-87
2022/10/06 05:32:08;;;;;;;15.13;9.27;;;14.50;99.90;;;;;;5053078;28;20440;-86
2022/10/06 05:34:35;;;;;;;20.80;11.10;;;14.50;99.90;;;;;;5059990;28;20433;-87
2022/10/06 05:37:03;;;;;;;20.87;12.37;;;14.50;99.90;;;;;;5055733;28;20441;-87
2022/10/06 05:39:30;;;;;;;13.70;10.13;;;14.50;99.90;;;;;;5038268;28;20466;-88
2022/10/06 05:41:57;;;;;;;15.73;11.33;;;14.50;99.90;;;;;;5038198;28;20448;-87
2022/10/06 05:44:23;;;;;;;13.73;11.17;;;14.60;99.90;;;;;;5042744;28;20443;-88
2022/10/06 05:46:50;;;;;;;14.10;9.90;;;14.50;99.90;;;;;;5045626;28;20493;-87
2022/10/06 05:49:17;;;;;;;16.73;10.13;;;14.60;99.90;;;;;;5031210;28;20492;-88
2022/10/06 05:51:43;;;;;;;19.60;9.93;;;14.60;99.90;;;;;;5022879;28;20449;-88
2022/10/06 05:54:13;;;;;;;15.90;11.57;;;14.60;99.90;;;;;;5022397;28;20796;-87
2022/10/06 05:56:40;;;;;;;17.30;11.10;;;14.60;99.90;;;;;;5019891;28;20453;-88
2022/10/06 05:59:07;;;;;;;15.50;11.07;;;14.60;99.90;;;;;;5022498;28;20836;-88
2022/10/06 06:01:36;;;;;;;17.70;12.53;;;14.70;99.90;;;;;;5027262;28;20430;-88
2022/10/06 06:04:05;;;;;;;19.43;13.70;;;14.70;99.90;;;;;;5030533;28;20474;-88
2022/10/06 06:06:33;;;;;;;20.10;13.57;;;14.70;99.90;;;;;;5032661;28;20517;-87
2022/10/06 06:09:03;;;;;;;23.90;15.50;;;14.70;99.90;;;;;;5021807;28;20490;-87
2022/10/06 06:11:31;;;;;;;22.77;17.60;;;14.70;99.90;;;;;;5025955;28;20504;-88
2022/10/06 06:13:59;;;;;;;25.57;14.90;;;14.80;99.90;;;;;;5034024;28;20454;-85
2022/10/06 06:16:29;;;;;;;27.30;15.17;;;14.80;99.90;;;;;;5047215;28;20422;-86
2022/10/06 06:18:56;;;;;;;17.77;12.10;;;14.80;99.90;;;;;;5035141;28;20876;-87
2022/10/06 06:21:23;;;;;;;19.83;13.10;;;14.90;99.90;;;;;;5043937;28;20434;-86
2022/10/06 06:23:50;;;;;;;16.60;12.10;;;14.90;99.90;;;;;;5044908;28;20445;-86
2022/10/06 06:26:19;;;;;;;21.23;12.13;;;14.90;99.90;;;;;;5040963;28;20427;-86
2022/10/06 06:28:47;;;;;;;18.33;14.00;;;14.90;99.90;;;;;;5033217;28;20926;-87
2022/10/06 06:31:16;;;;;;;20.90;14.77;;;15.00;99.90;;;;;;5019304;28;20662;-87
2022/10/06 06:33:43;;;;;;;26.83;12.90;;;15.00;99.90;;;;;;5022961;28;20959;-87
2022/10/06 06:36:14;;;;;;;18.77;13.80;;;15.10;99.90;;;;;;5022363;28;20445;-89
2022/10/06 06:38:41;;;;;;;21.67;14.03;;;15.10;99.90;;;;;;5076478;22;20534;-88
2022/10/06 06:41:14;;;;;;;31.33;14.83;;;15.20;99.90;;;;;;5045527;28;20495;-87
2022/10/06 06:43:41;;;;;;;16.67;13.13;;;15.20;99.90;;;;;;5052768;28;20440;-86
2022/10/06 06:46:09;;;;;;;17.50;13.63;;;15.30;99.90;;;;;;5038706;28;20529;-87
2022/10/06 06:48:36;;;;;;;17.80;11.70;;;15.40;99.90;;;;;;5037279;28;20506;-87
2022/10/06 06:51:04;;;;;;;22.07;13.13;;;15.40;99.90;;;;;;5018199;28;20472;-89
2022/10/06 06:53:32;;;;;;;24.77;14.30;;;15.50;99.90;;;;;;5026999;28;20454;-88
2022/10/06 06:55:58;;;;;;;16.93;12.33;;;15.50;99.90;;;;;;5015736;28;20477;-88
2022/10/06 06:58:25;;;;;;;18.27;13.00;;;15.60;99.90;;;;;;5022562;28;20451;-86
2022/10/06 07:00:52;;;;;;;24.53;12.73;;;15.70;99.90;;;;;;5027464;28;20469;-86
2022/10/06 07:03:21;;;;;;;14.63;11.00;;;15.90;99.90;;;;;;5019731;28;20548;-85
2022/10/06 07:05:48;;;;;;;20.77;10.67;;;16.10;99.90;;;;;;5025441;28;20427;-87
2022/10/06 07:08:19;;;;;;;18.00;10.50;;;16.30;99.90;;;;;;5037761;28;20476;-87
2022/10/06 07:10:47;;;;;;;21.57;11.73;;;16.50;99.90;;;;;;5037215;28;20467;-88
2022/10/06 07:13:15;;;;;;;16.03;10.23;;;16.60;99.90;;;;;;5024867;28;20446;-88
2022/10/06 07:26:57;;;;;;;20.53;12.10;;;16.80;99.90;;;;;;5016728;28;20421;-87
2022/10/06 07:29:24;;;;;;;15.83;12.53;;;16.80;99.90;;;;;;5015579;28;20497;-87
2022/10/06 07:31:51;;;;;;;18.77;13.23;;;16.80;99.90;;;;;;5016041;28;20430;-88
2022/10/06 07:34:19;;;;;;;28.40;11.93;;;16.60;99.90;;;;;;5015308;28;20461;-88
2022/10/06 07:36:51;;;;;;;19.13;12.90;;;16.60;99.90;;;;;;5014643;28;20446;-87
2022/10/06 07:39:18;;;;;;;18.67;12.63;;;16.70;99.90;;;;;;5015388;28;20541;-87
2022/10/06 07:41:44;;;;;;;18.60;11.43;;;16.80;99.90;;;;;;5029183;28;20442;-87
2022/10/06 07:44:11;;;;;;;27.00;13.63;;;16.90;99.90;;;;;;5038013;28;20439;-89
2022/10/06 07:46:38;;;;;;;22.50;12.60;;;17.00;99.90;;;;;;5036869;28;20460;-88
2022/10/06 07:49:04;;;;;;;23.70;13.50;;;17.10;99.90;;;;;;5035433;28;20485;-89
2022/10/06 07:51:32;;;;;;;18.00;12.83;;;17.20;99.90;;;;;;5022448;28;20440;-87
2022/10/06 07:53:59;;;;;;;18.60;12.53;;;17.20;99.90;;;;;;5015709;28;20465;-87
2022/10/06 07:56:26;;;;;;;23.80;13.70;;;17.30;99.90;;;;;;5023148;28;20441;-87
2022/10/06 07:58:54;;;;;;;20.17;11.77;;;17.30;99.90;;;;;;5021093;28;20469;-88
2022/10/06 08:01:21;;;;;;;16.27;11.37;;;17.50;99.90;;;;;;5028879;28;20445;-88
2022/10/06 08:03:49;;;;;;;17.30;10.30;;;17.60;99.90;;;;;;5018647;28;20453;-86
2022/10/06 08:06:17;;;;;;;13.90;9.57;;;17.70;99.90;;;;;;5016896;28;20960;-87
2022/10/06 08:08:47;;;;;;;21.43;10.63;;;17.80;99.90;;;;;;5017814;28;21003;-87
2022/10/06 08:11:15;;;;;;;13.50;10.53;;;17.80;99.90;;;;;;5017491;28;20453;-87
2022/10/06 08:13:43;;;;;;;21.43;11.00;;;17.80;99.90;;;;;;5031866;28;20536;-87
2022/10/06 08:16:12;;;;;;;20.23;10.63;;;17.90;99.90;;;;;;5024001;28;20452;-88
2022/10/06 08:18:40;;;;;;;10.83;9.37;;;17.80;99.90;;;;;;5015160;28;20479;-85
2022/10/06 08:21:12;;;;;;;14.57;9.70;;;18.10;99.90;;;;;;5014442;28;20469;-85
2022/10/06 08:23:41;;;;;;;15.27;7.40;;;18.20;99.90;;;;;;5015373;28;20461;-87
2022/10/06 08:26:10;;;;;;;11.03;7.30;;;18.30;99.90;;;;;;5017732;28;20450;-89
2022/10/06 08:28:36;;;;;;;63.40;11.50;;;18.50;99.90;;;;;;5021630;28;20490;-88
2022/10/06 08:31:05;;;;;;;21.87;9.20;;;18.70;99.90;;;;;;5021067;28;21123;-87
2022/10/06 08:33:37;;;;;;;14.20;6.27;;;18.90;99.90;;;;;;5018195;28;20443;-88
2022/10/06 08:36:04;;;;;;;9.77;5.63;;;19.00;99.90;;;;;;5017953;28;20527;-88
2022/10/06 08:38:32;;;;;;;9.60;5.10;;;19.00;99.90;;;;;;5016395;28;20453;-87
2022/10/06 08:40:58;;;;;;;8.07;3.97;;;19.00;99.90;;;;;;5016111;28;20461;-87
2022/10/06 08:43:28;;;;;;;7.60;4.40;;;19.10;99.90;;;;;;5015550;28;20956;-87
2022/10/06 08:46:01;;;;;;;10.83;3.30;;;19.10;99.90;;;;;;5019445;28;20446;-87
2022/10/06 08:48:37;;;;;;;3.73;3.10;;;19.10;99.90;;;;;;5016552;28;20481;-85
2022/10/06 08:51:17;;;;;;;3.30;2.20;;;19.00;99.90;;;;;;5022111;28;20541;-88
2022/10/06 08:53:54;;;;;;;7.40;2.83;;;19.20;99.90;;;;;;5040214;28;20525;-89
2022/10/06 08:56:25;;;;;;;6.87;2.97;;;19.30;99.90;;;;;;5039216;28;20437;-87
2022/10/06 08:58:56;;;;;;;5.03;3.37;;;19.50;99.90;;;;;;5032563;28;20482;-88
2022/10/06 09:01:24;;;;;;;5.40;3.03;;;19.50;99.90;;;;;;5040285;28;20985;-88
2022/10/06 09:03:54;;;;;;;4.00;2.30;;;19.60;99.90;;;;;;5037087;28;20450;-87
2022/10/06 09:06:44;;;;;;;5.07;2.50;;;19.50;99.90;;;;;;5038059;28;20512;-88
2022/10/06 09:09:20;;;;;;;6.80;3.00;;;19.40;99.90;;;;;;5041929;28;20481;-87
2022/10/06 09:11:54;;;;;;;7.60;3.13;;;19.50;99.90;;;;;;5040153;28;20544;-87
2022/10/06 09:14:30;;;;;;;5.37;2.37;;;19.60;99.90;;;;;;5038243;28;20774;-86
2022/10/06 09:17:01;;;;;;;7.30;2.37;;;19.80;99.90;;;;;;5036966;28;20463;-86
2022/10/06 09:19:38;;;;;;;6.67;2.83;;;20.00;99.90;;;;;;5037881;28;20476;-86
2022/10/06 09:22:13;;;;;;;6.67;2.33;;;20.10;99.90;;;;;;5040799;28;20446;-87
2022/10/06 09:24:41;;;;;;;14.47;4.63;;;20.10;99.90;;;;;;5041943;28;20456;-86
2022/10/06 09:27:17;;;;;;;4.10;2.63;;;20.20;99.90;;;;;;5049646;28;20442;-86
2022/10/06 09:29:47;;;;;;;5.30;2.60;;;20.20;99.90;;;;;;5044243;28;20489;-87
2022/10/06 09:32:14;;;;;;;6.33;3.40;;;20.20;99.90;;;;;;5045676;28;20464;-86
2022/10/06 09:34:46;;;;;;;4.93;2.40;;;20.30;99.90;;;;;;5042537;28;20453;-88
2022/10/06 09:37:14;;;;;;;6.70;4.73;;;20.60;99.80;;;;;;5052588;28;20453;-88
2022/10/06 09:39:43;;;;;;;7.83;2.30;;;21.00;98.90;;;;;;5046042;28;20469;-87
2022/10/06 09:42:17;;;;;;;8.27;2.47;;;21.40;98.20;;;;;;5044082;28;20446;-87
2022/10/06 09:44:55;;;;;;;6.03;2.30;;;21.50;97.40;;;;;;5036410;28;20449;-88
2022/10/06 09:47:43;;;;;;;2.80;2.03;;;21.60;96.80;;;;;;5038701;28;20453;-86
2022/10/06 09:50:22;;;;;;;5.53;2.47;;;21.90;96.40;;;;;;5039021;28;20485;-87
2022/10/06 09:53:10;;;;;;;5.33;3.57;;;21.90;96.20;;;;;;5039287;28;20448;-88
2022/10/06 09:55:44;;;;;;;5.30;2.83;;;21.90;96.00;;;;;;5043334;28;20445;-87
2022/10/06 09:58:21;;;;;;;6.30;2.47;;;21.90;96.10;;;;;;5044887;28;20961;-87
2022/10/06 10:00:54;;;;;;;4.40;2.60;;;21.70;96.00;;;;;;5040016;28;21027;-87
2022/10/06 10:03:24;;;;;;;5.33;2.47;;;21.60;96.20;;;;;;5039238;28;20429;-87
2022/10/06 10:05:53;;;;;;;7.63;2.30;;;21.50;96.40;;;;;;5042487;28;20473;-87
2022/10/06 10:08:22;;;;;;;8.23;2.80;;;21.60;95.90;;;;;;5040210;28;20533;-87
2022/10/06 10:10:50;;;;;;;4.43;1.97;;;21.80;95.40;;;;;;5039373;28;20535;-88
2022/10/06 10:13:22;;;;;;;3.87;2.20;;;22.00;94.70;;;;;;5039195;28;20525;-88
2022/10/06 10:15:54;;;;;;;6.27;1.90;;;22.10;94.40;;;;;;5039359;28;20441;-88
2022/10/06 10:18:26;;;;;;;3.50;2.00;;;22.10;94.20;;;;;;5036535;28;20448;-88
2022/10/06 10:20:56;;;;;;;4.93;1.97;;;22.10;94.20;;;;;;5035132;28;20496;-86
2022/10/06 10:23:28;;;;;;;4.43;1.87;;;21.90;94.30;;;;;;5036854;28;20813;-89
2022/10/06 10:26:25;;;;;;;7.00;2.33;;;21.70;94.50;;;;;;5034910;28;20947;-88
2022/10/06 10:29:09;;;;;;;4.77;1.93;;;21.40;94.70;;;;;;5035400;28;20494;-89
2022/10/06 10:31:47;;;;;;;3.97;2.10;;;21.60;95.00;;;;;;5058548;28;20454;-89
2022/10/06 10:34:28;;;;;;;3.90;1.63;;;22.90;92.90;;;;;;5042704;28;20474;-85
2022/10/06 10:37:02;;;;;;;7.07;1.83;;;23.40;91.50;;;;;;5036181;28;20454;-83
2022/10/06 10:39:32;;;;;;;4.57;2.00;;;23.70;90.40;;;;;;5038211;28;20489;-83
2022/10/06 10:42:04;;;;;;;7.07;3.00;;;24.70;87.80;;;;;;5040391;28;20815;-83
2022/10/06 10:44:34;;;;;;;4.40;2.13;;;26.90;81.60;;;;;;5051500;28;20454;-83
2022/10/06 10:47:13;;;;;;;3.87;2.00;;;29.30;71.20;;;;;;5054905;28;20435;-85
2022/10/06 10:49:47;;;;;;;6.53;2.00;;;31.20;61.50;;;;;;5057117;28;20463;-86
2022/10/06 10:52:17;;;;;;;5.97;2.10;;;32.80;56.10;;;;;;5046043;28;20454;-85
2022/10/06 10:54:48;;;;;;;2.43;1.50;;;34.60;52.70;;;;;;5037546;28;20452;-84
2022/10/06 10:57:17;;;;;;;5.30;1.87;;;35.60;48.90;;;;;;5037584;28;20456;-84
2022/10/06 11:00:00;;;;;;;4.37;2.17;;;36.00;46.40;;;;;;5046280;28;20494;-84
2022/10/06 11:02:28;;;;;;;2.67;1.60;;;36.10;44.80;;;;;;5047362;28;20432;-83
2022/10/06 11:05:01;;;;;;;3.00;1.73;;;36.60;43.70;;;;;;5046875;28;20539;-82
2022/10/06 11:07:35;;;;;;;4.50;2.30;;;36.00;43.20;;;;;;5049006;28;20452;-82
2022/10/06 11:10:11;;;;;;;3.10;1.63;;;35.30;44.20;;;;;;5047752;28;20579;-82
2022/10/06 11:13:04;;;;;;;4.23;1.77;;;35.80;44.70;;;;;;5049244;28;20457;-79
2022/10/06 11:15:46;;;;;;;6.23;2.20;;;34.50;44.30;;;;;;5050860;28;20518;-80
2022/10/06 11:18:25;;;;;;;5.80;2.97;;;33.40;46.80;;;;;;5049777;28;20487;-81
2022/10/06 11:20:59;;;;;;;5.87;3.00;;;33.30;47.00;;;;;;5031431;28;20484;-81
2022/10/06 11:23:52;;;;;;;5.07;2.00;;;32.10;48.00;;;;;;5039480;28;20448;-82
2022/10/06 11:26:35;;;;;;;4.70;2.23;;;31.20;49.80;;;;;;5038325;28;20455;-83
2022/10/06 11:29:13;;;;;;;6.37;2.57;;;29.70;52.10;;;;;;5038730;28;20519;-81
2022/10/06 11:31:50;;;;;;;6.13;1.93;;;28.10;54.40;;;;;;5038032;28;20851;-83
2022/10/06 11:34:18;;;;;;;6.93;3.30;;;27.10;56.50;;;;;;5039071;28;20967;-83
2022/10/06 11:36:50;;;;;;;5.40;2.87;;;26.00;58.80;;;;;;5037404;28;20445;-83
2022/10/06 11:39:23;;;;;;;3.93;1.83;;;25.50;60.40;;;;;;5039020;28;20873;-82
2022/10/06 11:41:57;;;;;;;7.30;2.03;;;25.10;62.00;;;;;;5039546;28;20449;-84
2022/10/06 11:44:32;;;;;;;5.27;2.10;;;24.60;63.40;;;;;;5043870;28;20449;-83
2022/10/06 11:47:03;;;;;;;5.10;1.80;;;25.20;64.70;;;;;;5044773;28;20519;-83
2022/10/06 11:49:52;;;;;;;5.00;2.47;;;25.90;62.40;;;;;;5040051;28;20484;-82
2022/10/06 11:52:46;;;;;;;4.33;2.43;;;26.40;60.60;;;;;;5027523;28;20464;-83
2022/10/06 11:55:19;;;;;;;6.30;3.27;;;26.70;58.80;;;;;;5009472;28;20449;-82
2022/10/06 11:58:16;;;;;;;6.90;2.37;;;26.60;59.60;;;;;;5019200;28;20522;-83
2022/10/06 12:00:48;;;;;;;3.50;2.20;;;25.50;60.50;;;;;;5018988;28;20473;-83
2022/10/06 12:03:44;;;;;;;5.00;1.80;;;25.30;62.20;;;;;;5019296;28;20503;-83
2022/10/06 12:06:56;;;;;;;3.40;2.07;;;25.00;62.60;;;;;;5016445;28;20494;-82
2022/10/06 12:09:40;;;;;;;6.40;3.30;;;24.90;62.70;;;;;;5006552;28;21013;-82
2022/10/06 12:12:52;;;;;;;8.27;3.10;;;24.80;62.70;;;;;;4996363;28;20449;-84
2022/10/06 12:15:35;;;;;;;8.57;3.50;;;24.30;63.70;;;;;;4997846;28;20985;-84
2022/10/06 12:18:08;;;;;;;9.13;3.43;;;24.10;65.60;;;;;;4996810;28;20462;-82
2022/10/06 12:20:47;;;;;;;8.47;2.93;;;24.00;66.20;;;;;;5000254;28;20483;-83
2022/10/06 12:23:23;;;;;;;7.20;3.03;;;23.70;67.10;;;;;;5008942;28;20441;-82
2022/10/06 12:25:55;;;;;;;5.43;2.30;;;23.40;68.40;;;;;;5010886;28;20443;-83
2022/10/06 12:28:32;;;;;;;4.93;1.80;;;23.10;69.60;;;;;;5012558;28;20435;-80
2022/10/06 12:31:27;;;;;;;3.60;2.00;;;23.20;70.40;;;;;;5027581;28;20475;-80
2022/10/06 12:33:54;;;;;;;10.27;2.30;;;23.20;70.20;;;;;;5023422;28;20472;-80
2022/10/06 12:36:24;;;;;;;4.93;2.43;;;23.30;70.20;;;;;;5020863;28;20442;-83
2022/10/06 12:41:57;;;;;;;3.77;2.10;;;23.30;69.40;;;;;;5037076;28;20492;-86
2022/10/06 12:44:26;;;;;;;4.07;1.80;;;23.10;70.50;;;;;;5048456;28;20437;-86
2022/10/06 12:46:55;;;;;;;5.33;2.43;;;23.10;71.10;;;;;;5059646;28;20434;-84
2022/10/06 12:49:42;;;;;;;3.83;1.90;;;23.00;71.80;;;;;;5054252;28;20441;-86
2022/10/06 12:52:43;;;;;;;8.47;2.50;;;22.70;72.80;;;;;;5017624;28;20514;-86
2022/10/06 12:55:40;;;;;;;6.70;1.90;;;22.40;73.70;;;;;;5011659;28;20492;-87
2022/10/06 12:58:17;;;;;;;3.10;1.93;;;22.20;74.40;;;;;;4997180;28;20457;-86
2022/10/06 13:00:44;;;;;;;11.23;2.13;;;22.10;75.20;;;;;;5013745;28;21114;-86
2022/10/06 13:03:18;;;;;;;3.47;1.47;;;22.10;76.00;;;;;;5016684;28;20473;-86
2022/10/06 13:05:50;;;;;;;6.10;1.80;;;22.00;76.40;;;;;;5016377;28;20469;-86
2022/10/06 13:08:25;;;;;;;7.00;1.80;;;22.10;76.50;;;;;;5021708;28;20823;-87
2022/10/06 13:11:10;;;;;;;5.70;2.27;;;22.20;75.90;;;;;;5016477;28;20480;-86